sensor_id;sensor_type;location;lat;lon;timestamp;P1;durP1;ratioP1;P2;durP2;ratioP2
56670;SDS011;42545;50.054;8.306;2022-10-31T00:02:12;7.55;;;4.70;;
56670;SDS011;42545;50.054;8.306;2022-10-31T00:04:41;6.25;;;4.25;;
56670;SDS011;42545;50.054;8.306;2022-10-31T00:07:10;4.70;;;3.40;;
56670;SDS011;42545;50.054;8.306;2022-10-31T00:09:37;7.00;;;3.92;;
56670;SDS011;42545;50.054;8.306;2022-10-31T00:12:04;5.53;;;3.30;;
56670;SDS011;42545;50.054;8.306;2022-10-31T00:14:32;5.10;;;3.78;;
56670;SDS011;42545;50.054;8.306;2022-10-31T00:16:58;4.40;;;3.28;;
56670;SDS011;42545;50.054;8.306;2022-10-31T00:19:25;8.63;;;4.97;;
56670;SDS011;42545;50.054;8.306;2022-10-31T00:21:55;8.70;;;5.93;;
56670;SDS011;42545;50.054;8.306;2022-10-31T00:24:22;9.50;;;6.25;;
56670;SDS011;42545;50.054;8.306;2022-10-31T00:26:49;8.38;;;5.13;;
56670;SDS011;42545;50.054;8.306;2022-10-31T00:29:15;6.43;;;4.78;;
56670;SDS011;42545;50.054;8.306;2022-10-31T00:31:42;9.13;;;4.80;;
56670;SDS011;42545;50.054;8.306;2022-10-31T00:34:09;8.98;;;5.63;;
56670;SDS011;42545;50.054;8.306;2022-10-31T00:36:36;6.88;;;4.57;;
56670;SDS011;42545;50.054;8.306;2022-10-31T00:39:05;6.15;;;3.80;;
56670;SDS011;42545;50.054;8.306;2022-10-31T00:41:32;10.57;;;5.60;;
56670;SDS011;42545;50.054;8.306;2022-10-31T00:43:59;6.28;;;4.30;;
56670;SDS011;42545;50.054;8.306;2022-10-31T00:46:26;5.85;;;4.20;;
56670;SDS011;42545;50.054;8.306;2022-10-31T00:48:53;6.45;;;3.97;;
56670;SDS011;42545;50.054;8.306;2022-10-31T00:51:21;5.40;;;3.88;;
56670;SDS011;42545;50.054;8.306;2022-10-31T00:53:47;7.20;;;3.60;;
56670;SDS011;42545;50.054;8.306;2022-10-31T00:56:16;4.45;;;3.22;;
56670;SDS011;42545;50.054;8.306;2022-10-31T00:58:43;4.65;;;2.80;;
56670;SDS011;42545;50.054;8.306;2022-10-31T01:01:10;3.83;;;2.55;;
56670;SDS011;42545;50.054;8.306;2022-10-31T01:03:37;3.90;;;2.67;;
56670;SDS011;42545;50.054;8.306;2022-10-31T01:06:05;3.83;;;2.70;;
56670;SDS011;42545;50.054;8.306;2022-10-31T01:11:04;3.08;;;2.38;;
56670;SDS011;42545;50.054;8.306;2022-10-31T01:13:34;2.80;;;2.00;;
56670;SDS011;42545;50.054;8.306;2022-10-31T01:16:02;2.70;;;2.13;;
56670;SDS011;42545;50.054;8.306;2022-10-31T01:18:32;2.67;;;2.25;;
56670;SDS011;42545;50.054;8.306;2022-10-31T01:21:00;2.92;;;2.13;;
56670;SDS011;42545;50.054;8.306;2022-10-31T01:23:29;3.97;;;2.80;;
56670;SDS011;42545;50.054;8.306;2022-10-31T01:26:01;3.70;;;2.38;;
56670;SDS011;42545;50.054;8.306;2022-10-31T01:28:29;3.83;;;2.30;;
56670;SDS011;42545;50.054;8.306;2022-10-31T01:31:01;4.15;;;2.92;;
56670;SDS011;42545;50.054;8.306;2022-10-31T01:33:29;3.78;;;2.60;;
56670;SDS011;42545;50.054;8.306;2022-10-31T01:35:56;4.05;;;2.92;;
56670;SDS011;42545;50.054;8.306;2022-10-31T01:38:23;3.35;;;2.50;;
56670;SDS011;42545;50.054;8.306;2022-10-31T01:40:50;3.00;;;2.45;;
56670;SDS011;42545;50.054;8.306;2022-10-31T01:43:17;3.42;;;2.38;;
56670;SDS011;42545;50.054;8.306;2022-10-31T01:45:46;2.72;;;2.20;;
56670;SDS011;42545;50.054;8.306;2022-10-31T01:48:22;3.17;;;2.20;;
56670;SDS011;42545;50.054;8.306;2022-10-31T01:50:56;3.45;;;2.38;;
56670;SDS011;42545;50.054;8.306;2022-10-31T01:53:23;2.58;;;2.05;;
56670;SDS011;42545;50.054;8.306;2022-10-31T01:55:50;2.88;;;2.30;;
56670;SDS011;42545;50.054;8.306;2022-10-31T01:58:18;2.63;;;2.00;;
56670;SDS011;42545;50.054;8.306;2022-10-31T02:00:49;3.28;;;2.15;;
56670;SDS011;42545;50.054;8.306;2022-10-31T02:03:19;2.05;;;1.85;;
56670;SDS011;42545;50.054;8.306;2022-10-31T02:05:48;7.53;;;3.67;;
56670;SDS011;42545;50.054;8.306;2022-10-31T02:08:17;6.35;;;3.45;;
56670;SDS011;42545;50.054;8.306;2022-10-31T02:10:49;5.13;;;3.83;;
56670;SDS011;42545;50.054;8.306;2022-10-31T02:13:16;5.63;;;3.65;;
56670;SDS011;42545;50.054;8.306;2022-10-31T02:15:46;5.32;;;3.85;;
56670;SDS011;42545;50.054;8.306;2022-10-31T02:18:16;5.72;;;3.85;;
56670;SDS011;42545;50.054;8.306;2022-10-31T02:20:48;6.68;;;3.20;;
56670;SDS011;42545;50.054;8.306;2022-10-31T02:23:39;4.45;;;2.90;;
56670;SDS011;42545;50.054;8.306;2022-10-31T02:26:27;5.65;;;3.28;;
56670;SDS011;42545;50.054;8.306;2022-10-31T02:29:30;3.50;;;2.63;;
56670;SDS011;42545;50.054;8.306;2022-10-31T02:32:20;3.58;;;2.30;;
56670;SDS011;42545;50.054;8.306;2022-10-31T02:34:56;3.28;;;2.20;;
56670;SDS011;42545;50.054;8.306;2022-10-31T02:37:32;3.72;;;2.42;;
56670;SDS011;42545;50.054;8.306;2022-10-31T02:40:05;3.15;;;2.33;;
56670;SDS011;42545;50.054;8.306;2022-10-31T02:42:40;2.63;;;2.10;;
56670;SDS011;42545;50.054;8.306;2022-10-31T02:45:13;3.10;;;2.05;;
56670;SDS011;42545;50.054;8.306;2022-10-31T02:47:47;2.20;;;1.83;;
56670;SDS011;42545;50.054;8.306;2022-10-31T02:50:18;2.30;;;1.80;;
56670;SDS011;42545;50.054;8.306;2022-10-31T02:52:50;2.85;;;2.00;;
56670;SDS011;42545;50.054;8.306;2022-10-31T02:58:14;2.55;;;1.92;;
56670;SDS011;42545;50.054;8.306;2022-10-31T03:00:48;2.78;;;1.75;;
56670;SDS011;42545;50.054;8.306;2022-10-31T03:03:28;2.42;;;1.92;;
56670;SDS011;42545;50.054;8.306;2022-10-31T03:06:03;3.58;;;2.15;;
56670;SDS011;42545;50.054;8.306;2022-10-31T03:08:37;2.30;;;1.80;;
56670;SDS011;42545;50.054;8.306;2022-10-31T03:11:11;2.72;;;2.10;;
56670;SDS011;42545;50.054;8.306;2022-10-31T03:13:39;2.50;;;1.65;;
56670;SDS011;42545;50.054;8.306;2022-10-31T03:16:12;2.33;;;1.75;;
56670;SDS011;42545;50.054;8.306;2022-10-31T03:18:45;1.85;;;1.60;;
56670;SDS011;42545;50.054;8.306;2022-10-31T03:21:19;2.30;;;1.75;;
56670;SDS011;42545;50.054;8.306;2022-10-31T03:23:49;2.75;;;1.73;;
56670;SDS011;42545;50.054;8.306;2022-10-31T03:26:19;2.60;;;1.73;;
56670;SDS011;42545;50.054;8.306;2022-10-31T03:28:48;1.98;;;1.55;;
56670;SDS011;42545;50.054;8.306;2022-10-31T03:31:18;1.92;;;1.60;;
56670;SDS011;42545;50.054;8.306;2022-10-31T03:33:51;2.47;;;1.60;;
56670;SDS011;42545;50.054;8.306;2022-10-31T03:36:20;2.75;;;1.80;;
56670;SDS011;42545;50.054;8.306;2022-10-31T03:38:49;2.05;;;1.60;;
56670;SDS011;42545;50.054;8.306;2022-10-31T03:41:18;1.73;;;1.38;;
56670;SDS011;42545;50.054;8.306;2022-10-31T03:43:51;1.85;;;1.45;;
56670;SDS011;42545;50.054;8.306;2022-10-31T03:46:22;1.83;;;1.38;;
56670;SDS011;42545;50.054;8.306;2022-10-31T03:48:51;1.85;;;1.40;;
56670;SDS011;42545;50.054;8.306;2022-10-31T03:51:19;1.90;;;1.30;;
56670;SDS011;42545;50.054;8.306;2022-10-31T03:53:52;1.60;;;1.23;;
56670;SDS011;42545;50.054;8.306;2022-10-31T03:56:24;2.15;;;1.80;;
56670;SDS011;42545;50.054;8.306;2022-10-31T03:58:58;2.08;;;1.67;;
56670;SDS011;42545;50.054;8.306;2022-10-31T04:01:31;1.92;;;1.63;;
56670;SDS011;42545;50.054;8.306;2022-10-31T04:04:03;3.15;;;2.03;;
56670;SDS011;42545;50.054;8.306;2022-10-31T04:06:32;2.42;;;1.67;;
56670;SDS011;42545;50.054;8.306;2022-10-31T04:09:03;2.10;;;1.80;;
56670;SDS011;42545;50.054;8.306;2022-10-31T04:11:33;2.95;;;1.70;;
56670;SDS011;42545;50.054;8.306;2022-10-31T04:14:05;3.08;;;2.40;;
56670;SDS011;42545;50.054;8.306;2022-10-31T04:16:34;2.13;;;1.88;;
56670;SDS011;42545;50.054;8.306;2022-10-31T04:19:03;2.83;;;2.22;;
56670;SDS011;42545;50.054;8.306;2022-10-31T04:21:31;2.63;;;2.08;;
56670;SDS011;42545;50.054;8.306;2022-10-31T04:23:57;3.00;;;2.00;;
56670;SDS011;42545;50.054;8.306;2022-10-31T04:26:26;2.83;;;2.13;;
56670;SDS011;42545;50.054;8.306;2022-10-31T04:28:53;3.55;;;2.13;;
56670;SDS011;42545;50.054;8.306;2022-10-31T04:31:20;2.80;;;1.98;;
56670;SDS011;42545;50.054;8.306;2022-10-31T04:33:47;3.08;;;2.10;;
56670;SDS011;42545;50.054;8.306;2022-10-31T04:36:16;3.50;;;2.03;;
56670;SDS011;42545;50.054;8.306;2022-10-31T04:38:43;2.53;;;1.73;;
56670;SDS011;42545;50.054;8.306;2022-10-31T04:41:10;1.80;;;1.40;;
56670;SDS011;42545;50.054;8.306;2022-10-31T04:43:37;2.95;;;1.80;;
56670;SDS011;42545;50.054;8.306;2022-10-31T04:46:04;2.15;;;1.73;;
56670;SDS011;42545;50.054;8.306;2022-10-31T04:48:31;2.03;;;1.60;;
56670;SDS011;42545;50.054;8.306;2022-10-31T04:50:58;2.30;;;1.77;;
56670;SDS011;42545;50.054;8.306;2022-10-31T04:53:27;2.15;;;1.60;;
56670;SDS011;42545;50.054;8.306;2022-10-31T04:55:55;1.30;;;1.20;;
56670;SDS011;42545;50.054;8.306;2022-10-31T04:58:24;1.67;;;1.30;;
56670;SDS011;42545;50.054;8.306;2022-10-31T05:00:51;1.73;;;1.40;;
56670;SDS011;42545;50.054;8.306;2022-10-31T05:03:18;1.52;;;1.25;;
56670;SDS011;42545;50.054;8.306;2022-10-31T05:05:45;1.70;;;1.30;;
56670;SDS011;42545;50.054;8.306;2022-10-31T05:08:12;2.03;;;1.20;;
56670;SDS011;42545;50.054;8.306;2022-10-31T05:10:41;2.15;;;1.67;;
56670;SDS011;42545;50.054;8.306;2022-10-31T05:13:08;2.20;;;1.70;;
56670;SDS011;42545;50.054;8.306;2022-10-31T05:15:35;2.03;;;1.67;;
56670;SDS011;42545;50.054;8.306;2022-10-31T05:18:02;2.50;;;1.50;;
56670;SDS011;42545;50.054;8.306;2022-10-31T05:20:31;2.60;;;1.88;;
56670;SDS011;42545;50.054;8.306;2022-10-31T05:22:58;2.33;;;1.75;;
56670;SDS011;42545;50.054;8.306;2022-10-31T05:25:26;2.83;;;1.92;;
56670;SDS011;42545;50.054;8.306;2022-10-31T05:27:56;2.55;;;2.10;;
56670;SDS011;42545;50.054;8.306;2022-10-31T05:30:24;8.80;;;4.22;;
56670;SDS011;42545;50.054;8.306;2022-10-31T05:32:52;10.45;;;4.85;;
56670;SDS011;42545;50.054;8.306;2022-10-31T05:35:20;8.13;;;4.63;;
56670;SDS011;42545;50.054;8.306;2022-10-31T05:37:49;11.15;;;5.63;;
56670;SDS011;42545;50.054;8.306;2022-10-31T05:40:17;7.22;;;4.30;;
56670;SDS011;42545;50.054;8.306;2022-10-31T05:42:45;5.65;;;3.80;;
56670;SDS011;42545;50.054;8.306;2022-10-31T05:45:14;4.88;;;3.33;;
56670;SDS011;42545;50.054;8.306;2022-10-31T05:47:49;6.32;;;3.60;;
56670;SDS011;42545;50.054;8.306;2022-10-31T05:50:16;5.30;;;3.30;;
56670;SDS011;42545;50.054;8.306;2022-10-31T05:52:43;4.65;;;2.90;;
56670;SDS011;42545;50.054;8.306;2022-10-31T05:55:10;4.70;;;2.83;;
56670;SDS011;42545;50.054;8.306;2022-10-31T05:57:37;4.18;;;2.90;;
56670;SDS011;42545;50.054;8.306;2022-10-31T06:00:04;4.18;;;2.88;;
56670;SDS011;42545;50.054;8.306;2022-10-31T06:02:34;4.15;;;2.63;;
56670;SDS011;42545;50.054;8.306;2022-10-31T06:05:01;3.58;;;2.40;;
56670;SDS011;42545;50.054;8.306;2022-10-31T06:07:31;3.13;;;2.45;;
56670;SDS011;42545;50.054;8.306;2022-10-31T06:09:59;3.67;;;2.20;;
56670;SDS011;42545;50.054;8.306;2022-10-31T06:12:26;3.10;;;2.00;;
56670;SDS011;42545;50.054;8.306;2022-10-31T06:14:54;2.85;;;2.28;;
56670;SDS011;42545;50.054;8.306;2022-10-31T06:17:22;2.60;;;1.90;;
56670;SDS011;42545;50.054;8.306;2022-10-31T06:19:51;2.80;;;1.95;;
56670;SDS011;42545;50.054;8.306;2022-10-31T06:22:18;2.58;;;1.90;;
56670;SDS011;42545;50.054;8.306;2022-10-31T06:24:44;3.45;;;1.90;;
56670;SDS011;42545;50.054;8.306;2022-10-31T06:27:11;4.90;;;2.47;;
56670;SDS011;42545;50.054;8.306;2022-10-31T06:29:38;3.88;;;2.55;;
56670;SDS011;42545;50.054;8.306;2022-10-31T06:32:05;4.50;;;3.50;;
56670;SDS011;42545;50.054;8.306;2022-10-31T06:34:32;5.45;;;3.47;;
56670;SDS011;42545;50.054;8.306;2022-10-31T06:37:01;5.57;;;3.47;;
56670;SDS011;42545;50.054;8.306;2022-10-31T06:39:28;5.28;;;3.30;;
56670;SDS011;42545;50.054;8.306;2022-10-31T06:41:54;5.70;;;3.40;;
56670;SDS011;42545;50.054;8.306;2022-10-31T06:44:21;5.00;;;3.22;;
56670;SDS011;42545;50.054;8.306;2022-10-31T06:46:48;4.50;;;2.83;;
56670;SDS011;42545;50.054;8.306;2022-10-31T06:49:16;3.50;;;2.60;;
56670;SDS011;42545;50.054;8.306;2022-10-31T06:51:43;3.95;;;2.50;;
56670;SDS011;42545;50.054;8.306;2022-10-31T06:54:15;6.88;;;3.88;;
56670;SDS011;42545;50.054;8.306;2022-10-31T06:56:46;5.32;;;3.75;;
56670;SDS011;42545;50.054;8.306;2022-10-31T06:59:14;4.50;;;2.90;;
56670;SDS011;42545;50.054;8.306;2022-10-31T07:01:41;4.30;;;3.25;;
56670;SDS011;42545;50.054;8.306;2022-10-31T07:04:09;5.07;;;3.45;;
56670;SDS011;42545;50.054;8.306;2022-10-31T07:06:36;4.47;;;3.10;;
56670;SDS011;42545;50.054;8.306;2022-10-31T07:09:03;4.53;;;2.90;;
56670;SDS011;42545;50.054;8.306;2022-10-31T07:11:31;4.25;;;3.10;;
56670;SDS011;42545;50.054;8.306;2022-10-31T07:13:58;2.67;;;2.13;;
56670;SDS011;42545;50.054;8.306;2022-10-31T07:16:25;3.88;;;2.95;;
56670;SDS011;42545;50.054;8.306;2022-10-31T07:18:52;3.83;;;2.60;;
56670;SDS011;42545;50.054;8.306;2022-10-31T07:21:19;3.45;;;2.33;;
56670;SDS011;42545;50.054;8.306;2022-10-31T07:23:47;2.90;;;2.25;;
56670;SDS011;42545;50.054;8.306;2022-10-31T07:26:14;2.90;;;2.20;;
56670;SDS011;42545;50.054;8.306;2022-10-31T07:28:45;3.42;;;2.28;;
56670;SDS011;42545;50.054;8.306;2022-10-31T07:31:11;2.90;;;2.15;;
56670;SDS011;42545;50.054;8.306;2022-10-31T07:33:38;2.47;;;1.90;;
56670;SDS011;42545;50.054;8.306;2022-10-31T07:36:05;2.45;;;1.85;;
56670;SDS011;42545;50.054;8.306;2022-10-31T07:38:33;3.85;;;2.75;;
56670;SDS011;42545;50.054;8.306;2022-10-31T07:41:00;4.05;;;2.70;;
56670;SDS011;42545;50.054;8.306;2022-10-31T07:43:27;2.80;;;2.30;;
56670;SDS011;42545;50.054;8.306;2022-10-31T07:45:56;7.20;;;3.10;;
56670;SDS011;42545;50.054;8.306;2022-10-31T07:48:23;3.40;;;2.42;;
56670;SDS011;42545;50.054;8.306;2022-10-31T07:50:50;2.85;;;2.17;;
56670;SDS011;42545;50.054;8.306;2022-10-31T07:53:18;2.70;;;2.05;;
56670;SDS011;42545;50.054;8.306;2022-10-31T07:55:45;3.33;;;2.70;;
56670;SDS011;42545;50.054;8.306;2022-10-31T07:58:12;3.75;;;3.00;;
56670;SDS011;42545;50.054;8.306;2022-10-31T08:00:41;4.77;;;3.40;;
56670;SDS011;42545;50.054;8.306;2022-10-31T08:03:13;3.92;;;3.00;;
56670;SDS011;42545;50.054;8.306;2022-10-31T08:05:41;3.40;;;2.85;;
56670;SDS011;42545;50.054;8.306;2022-10-31T08:08:10;4.10;;;3.15;;
56670;SDS011;42545;50.054;8.306;2022-10-31T08:10:38;7.63;;;4.00;;
56670;SDS011;42545;50.054;8.306;2022-10-31T08:13:06;6.03;;;4.28;;
56670;SDS011;42545;50.054;8.306;2022-10-31T08:15:34;9.15;;;5.53;;
56670;SDS011;42545;50.054;8.306;2022-10-31T08:18:04;14.93;;;8.50;;
56670;SDS011;42545;50.054;8.306;2022-10-31T08:20:34;8.05;;;5.55;;
56670;SDS011;42545;50.054;8.306;2022-10-31T08:23:02;8.88;;;5.72;;
56670;SDS011;42545;50.054;8.306;2022-10-31T08:25:31;6.90;;;4.57;;
56670;SDS011;42545;50.054;8.306;2022-10-31T08:27:59;8.65;;;5.38;;
56670;SDS011;42545;50.054;8.306;2022-10-31T08:30:27;5.35;;;4.38;;
56670;SDS011;42545;50.054;8.306;2022-10-31T08:32:59;8.38;;;4.60;;
56670;SDS011;42545;50.054;8.306;2022-10-31T08:35:27;11.38;;;7.00;;
56670;SDS011;42545;50.054;8.306;2022-10-31T08:37:56;6.93;;;5.28;;
56670;SDS011;42545;50.054;8.306;2022-10-31T08:40:24;11.27;;;7.45;;
56670;SDS011;42545;50.054;8.306;2022-10-31T08:42:55;11.63;;;6.82;;
56670;SDS011;42545;50.054;8.306;2022-10-31T08:45:23;9.52;;;5.97;;
56670;SDS011;42545;50.054;8.306;2022-10-31T08:47:51;7.03;;;5.20;;
56670;SDS011;42545;50.054;8.306;2022-10-31T08:50:19;14.88;;;7.95;;
56670;SDS011;42545;50.054;8.306;2022-10-31T08:52:46;8.70;;;5.90;;
56670;SDS011;42545;50.054;8.306;2022-10-31T08:55:14;6.72;;;4.60;;
56670;SDS011;42545;50.054;8.306;2022-10-31T08:57:42;6.85;;;4.60;;
56670;SDS011;42545;50.054;8.306;2022-10-31T09:00:09;7.43;;;4.80;;
56670;SDS011;42545;50.054;8.306;2022-10-31T09:02:36;8.45;;;5.47;;
56670;SDS011;42545;50.054;8.306;2022-10-31T09:05:04;9.68;;;5.72;;
56670;SDS011;42545;50.054;8.306;2022-10-31T09:07:31;17.90;;;10.02;;
56670;SDS011;42545;50.054;8.306;2022-10-31T09:10:00;8.88;;;5.72;;
56670;SDS011;42545;50.054;8.306;2022-10-31T09:12:31;10.07;;;6.38;;
56670;SDS011;42545;50.054;8.306;2022-10-31T09:14:59;10.02;;;5.97;;
56670;SDS011;42545;50.054;8.306;2022-10-31T09:17:27;9.98;;;5.68;;
56670;SDS011;42545;50.054;8.306;2022-10-31T09:19:54;13.80;;;6.85;;
56670;SDS011;42545;50.054;8.306;2022-10-31T09:22:21;13.40;;;7.22;;
56670;SDS011;42545;50.054;8.306;2022-10-31T09:24:50;12.32;;;7.65;;
56670;SDS011;42545;50.054;8.306;2022-10-31T09:27:16;22.92;;;10.02;;
56670;SDS011;42545;50.054;8.306;2022-10-31T09:29:46;10.32;;;6.82;;
56670;SDS011;42545;50.054;8.306;2022-10-31T09:32:13;8.93;;;5.80;;
56670;SDS011;42545;50.054;8.306;2022-10-31T09:34:40;9.23;;;6.03;;
56670;SDS011;42545;50.054;8.306;2022-10-31T09:37:08;13.70;;;7.25;;
56670;SDS011;42545;50.054;8.306;2022-10-31T09:39:35;8.80;;;6.03;;
56670;SDS011;42545;50.054;8.306;2022-10-31T09:42:08;10.52;;;6.72;;
56670;SDS011;42545;50.054;8.306;2022-10-31T09:44:49;12.07;;;7.10;;
56670;SDS011;42545;50.054;8.306;2022-10-31T09:47:31;10.57;;;6.43;;
56670;SDS011;42545;50.054;8.306;2022-10-31T09:50:12;11.50;;;7.45;;
56670;SDS011;42545;50.054;8.306;2022-10-31T09:52:47;11.60;;;7.47;;
56670;SDS011;42545;50.054;8.306;2022-10-31T09:55:27;12.32;;;8.40;;
56670;SDS011;42545;50.054;8.306;2022-10-31T09:58:01;13.38;;;8.23;;
56670;SDS011;42545;50.054;8.306;2022-10-31T10:00:31;12.95;;;7.40;;
56670;SDS011;42545;50.054;8.306;2022-10-31T10:03:02;11.80;;;8.18;;
56670;SDS011;42545;50.054;8.306;2022-10-31T10:05:37;13.18;;;7.60;;
56670;SDS011;42545;50.054;8.306;2022-10-31T10:08:10;9.27;;;6.95;;
56670;SDS011;42545;50.054;8.306;2022-10-31T10:10:45;14.30;;;7.22;;
56670;SDS011;42545;50.054;8.306;2022-10-31T10:13:24;14.95;;;8.10;;
56670;SDS011;42545;50.054;8.306;2022-10-31T10:16:10;14.70;;;8.40;;
56670;SDS011;42545;50.054;8.306;2022-10-31T10:18:47;11.60;;;7.15;;
56670;SDS011;42545;50.054;8.306;2022-10-31T10:21:29;8.80;;;6.25;;
56670;SDS011;42545;50.054;8.306;2022-10-31T10:24:22;10.32;;;6.55;;
56670;SDS011;42545;50.054;8.306;2022-10-31T10:26:59;10.70;;;7.53;;
56670;SDS011;42545;50.054;8.306;2022-10-31T10:29:34;13.10;;;9.27;;
56670;SDS011;42545;50.054;8.306;2022-10-31T10:32:09;16.55;;;9.00;;
56670;SDS011;42545;50.054;8.306;2022-10-31T10:34:43;13.73;;;9.38;;
56670;SDS011;42545;50.054;8.306;2022-10-31T10:37:17;9.65;;;6.75;;
56670;SDS011;42545;50.054;8.306;2022-10-31T10:39:51;15.50;;;9.05;;
56670;SDS011;42545;50.054;8.306;2022-10-31T10:42:21;14.02;;;8.50;;
56670;SDS011;42545;50.054;8.306;2022-10-31T10:45:13;14.57;;;8.38;;
56670;SDS011;42545;50.054;8.306;2022-10-31T10:48:02;14.65;;;8.63;;
56670;SDS011;42545;50.054;8.306;2022-10-31T10:50:35;17.88;;;11.18;;
56670;SDS011;42545;50.054;8.306;2022-10-31T10:53:12;17.17;;;9.68;;
56670;SDS011;42545;50.054;8.306;2022-10-31T10:55:58;13.23;;;8.50;;
56670;SDS011;42545;50.054;8.306;2022-10-31T10:58:29;11.00;;;7.60;;
56670;SDS011;42545;50.054;8.306;2022-10-31T11:00:56;11.43;;;8.05;;
56670;SDS011;42545;50.054;8.306;2022-10-31T11:03:24;10.35;;;6.70;;
56670;SDS011;42545;50.054;8.306;2022-10-31T11:05:52;13.68;;;7.90;;
56670;SDS011;42545;50.054;8.306;2022-10-31T11:08:23;16.33;;;9.40;;
56670;SDS011;42545;50.054;8.306;2022-10-31T11:10:56;15.43;;;9.38;;
56670;SDS011;42545;50.054;8.306;2022-10-31T11:13:31;22.95;;;9.48;;
56670;SDS011;42545;50.054;8.306;2022-10-31T11:16:02;13.75;;;7.78;;
56670;SDS011;42545;50.054;8.306;2022-10-31T11:18:34;8.90;;;6.57;;
56670;SDS011;42545;50.054;8.306;2022-10-31T11:21:04;8.75;;;6.10;;
56670;SDS011;42545;50.054;8.306;2022-10-31T11:23:32;8.25;;;5.60;;
56670;SDS011;42545;50.054;8.306;2022-10-31T11:26:00;7.95;;;5.57;;
56670;SDS011;42545;50.054;8.306;2022-10-31T11:28:29;8.65;;;6.20;;
56670;SDS011;42545;50.054;8.306;2022-10-31T11:31:01;7.25;;;4.80;;
56670;SDS011;42545;50.054;8.306;2022-10-31T11:33:36;12.90;;;7.43;;
56670;SDS011;42545;50.054;8.306;2022-10-31T11:36:13;11.38;;;6.97;;
56670;SDS011;42545;50.054;8.306;2022-10-31T11:38:43;9.75;;;6.15;;
56670;SDS011;42545;50.054;8.306;2022-10-31T11:41:12;10.60;;;5.57;;
56670;SDS011;42545;50.054;8.306;2022-10-31T11:43:45;8.65;;;5.68;;
56670;SDS011;42545;50.054;8.306;2022-10-31T11:46:19;10.15;;;5.40;;
56670;SDS011;42545;50.054;8.306;2022-10-31T11:48:50;9.23;;;5.20;;
56670;SDS011;42545;50.054;8.306;2022-10-31T11:51:21;10.25;;;5.88;;
56670;SDS011;42545;50.054;8.306;2022-10-31T11:53:53;6.20;;;3.80;;
56670;SDS011;42545;50.054;8.306;2022-10-31T11:56:27;9.15;;;4.65;;
56670;SDS011;42545;50.054;8.306;2022-10-31T11:59:04;4.90;;;3.58;;
56670;SDS011;42545;50.054;8.306;2022-10-31T12:01:32;5.20;;;3.30;;
56670;SDS011;42545;50.054;8.306;2022-10-31T12:04:04;6.88;;;4.22;;
56670;SDS011;42545;50.054;8.306;2022-10-31T12:06:34;7.28;;;4.18;;
56670;SDS011;42545;50.054;8.306;2022-10-31T12:09:04;6.05;;;4.20;;
56670;SDS011;42545;50.054;8.306;2022-10-31T12:11:46;7.40;;;5.10;;
56670;SDS011;42545;50.054;8.306;2022-10-31T12:14:26;8.68;;;5.00;;
56670;SDS011;42545;50.054;8.306;2022-10-31T12:16:59;8.48;;;4.50;;
56670;SDS011;42545;50.054;8.306;2022-10-31T12:19:38;9.38;;;4.93;;
56670;SDS011;42545;50.054;8.306;2022-10-31T12:22:12;9.77;;;5.78;;
56670;SDS011;42545;50.054;8.306;2022-10-31T12:24:54;13.90;;;6.13;;
56670;SDS011;42545;50.054;8.306;2022-10-31T12:27:35;8.52;;;5.72;;
56670;SDS011;42545;50.054;8.306;2022-10-31T12:30:18;10.52;;;5.40;;
56670;SDS011;42545;50.054;8.306;2022-10-31T12:32:52;6.43;;;4.28;;
56670;SDS011;42545;50.054;8.306;2022-10-31T12:35:36;7.00;;;4.07;;
56670;SDS011;42545;50.054;8.306;2022-10-31T12:38:17;7.93;;;5.38;;
56670;SDS011;42545;50.054;8.306;2022-10-31T12:41:04;14.63;;;8.02;;
56670;SDS011;42545;50.054;8.306;2022-10-31T12:43:45;6.78;;;4.50;;
56670;SDS011;42545;50.054;8.306;2022-10-31T12:46:17;7.82;;;5.38;;
56670;SDS011;42545;50.054;8.306;2022-10-31T12:49:09;7.15;;;5.10;;
56670;SDS011;42545;50.054;8.306;2022-10-31T12:51:48;10.85;;;6.57;;
56670;SDS011;42545;50.054;8.306;2022-10-31T12:54:36;8.73;;;5.57;;
56670;SDS011;42545;50.054;8.306;2022-10-31T12:57:19;12.05;;;6.35;;
56670;SDS011;42545;50.054;8.306;2022-10-31T12:59:51;11.13;;;5.63;;
56670;SDS011;42545;50.054;8.306;2022-10-31T13:02:26;8.18;;;5.00;;
56670;SDS011;42545;50.054;8.306;2022-10-31T13:04:56;9.23;;;4.93;;
56670;SDS011;42545;50.054;8.306;2022-10-31T13:07:29;5.53;;;4.30;;
56670;SDS011;42545;50.054;8.306;2022-10-31T13:10:01;5.70;;;3.70;;
56670;SDS011;42545;50.054;8.306;2022-10-31T13:12:35;7.32;;;4.47;;
56670;SDS011;42545;50.054;8.306;2022-10-31T13:15:04;12.23;;;5.22;;
56670;SDS011;42545;50.054;8.306;2022-10-31T13:17:41;6.63;;;4.47;;
56670;SDS011;42545;50.054;8.306;2022-10-31T13:20:14;6.15;;;4.03;;
56670;SDS011;42545;50.054;8.306;2022-10-31T13:22:49;5.32;;;3.72;;
56670;SDS011;42545;50.054;8.306;2022-10-31T13:25:20;6.72;;;4.30;;
56670;SDS011;42545;50.054;8.306;2022-10-31T13:27:53;5.68;;;3.67;;
56670;SDS011;42545;50.054;8.306;2022-10-31T13:30:24;8.93;;;4.03;;
56670;SDS011;42545;50.054;8.306;2022-10-31T13:32:55;6.72;;;3.65;;
56670;SDS011;42545;50.054;8.306;2022-10-31T13:35:30;8.77;;;3.90;;
56670;SDS011;42545;50.054;8.306;2022-10-31T13:38:09;8.23;;;4.22;;
56670;SDS011;42545;50.054;8.306;2022-10-31T13:40:45;3.75;;;3.08;;
56670;SDS011;42545;50.054;8.306;2022-10-31T13:43:23;5.03;;;3.30;;
56670;SDS011;42545;50.054;8.306;2022-10-31T13:45:59;5.10;;;3.05;;
56670;SDS011;42545;50.054;8.306;2022-10-31T13:48:37;4.60;;;3.15;;
56670;SDS011;42545;50.054;8.306;2022-10-31T13:51:08;4.63;;;2.80;;
56670;SDS011;42545;50.054;8.306;2022-10-31T13:53:39;5.75;;;3.05;;
56670;SDS011;42545;50.054;8.306;2022-10-31T13:56:20;3.95;;;2.97;;
56670;SDS011;42545;50.054;8.306;2022-10-31T13:58:56;4.93;;;2.97;;
56670;SDS011;42545;50.054;8.306;2022-10-31T14:01:25;3.75;;;2.60;;
56670;SDS011;42545;50.054;8.306;2022-10-31T14:03:58;4.35;;;2.60;;
56670;SDS011;42545;50.054;8.306;2022-10-31T14:06:36;3.50;;;2.22;;
56670;SDS011;42545;50.054;8.306;2022-10-31T14:09:18;2.78;;;2.28;;
56670;SDS011;42545;50.054;8.306;2022-10-31T14:11:48;2.90;;;2.15;;
56670;SDS011;42545;50.054;8.306;2022-10-31T14:14:17;2.47;;;1.88;;
56670;SDS011;42545;50.054;8.306;2022-10-31T14:16:52;2.35;;;2.00;;
56670;SDS011;42545;50.054;8.306;2022-10-31T14:19:21;13.63;;;7.03;;
56670;SDS011;42545;50.054;8.306;2022-10-31T14:21:51;5.57;;;3.38;;
56670;SDS011;42545;50.054;8.306;2022-10-31T14:24:33;4.03;;;3.47;;
56670;SDS011;42545;50.054;8.306;2022-10-31T14:27:03;7.68;;;3.92;;
56670;SDS011;42545;50.054;8.306;2022-10-31T14:29:33;3.58;;;2.88;;
56670;SDS011;42545;50.054;8.306;2022-10-31T14:32:04;5.73;;;3.60;;
56670;SDS011;42545;50.054;8.306;2022-10-31T14:34:37;5.07;;;3.30;;
56670;SDS011;42545;50.054;8.306;2022-10-31T14:37:20;15.43;;;6.38;;
56670;SDS011;42545;50.054;8.306;2022-10-31T14:40:02;12.73;;;6.78;;
56670;SDS011;42545;50.054;8.306;2022-10-31T14:42:47;5.55;;;3.90;;
56670;SDS011;42545;50.054;8.306;2022-10-31T14:45:27;5.32;;;3.38;;
56670;SDS011;42545;50.054;8.306;2022-10-31T14:48:10;12.38;;;6.03;;
56670;SDS011;42545;50.054;8.306;2022-10-31T14:50:50;7.07;;;4.40;;
56670;SDS011;42545;50.054;8.306;2022-10-31T14:53:20;10.27;;;5.43;;
56670;SDS011;42545;50.054;8.306;2022-10-31T14:55:53;12.43;;;4.93;;
56670;SDS011;42545;50.054;8.306;2022-10-31T14:58:22;6.03;;;3.90;;
56670;SDS011;42545;50.054;8.306;2022-10-31T15:00:53;5.55;;;3.50;;
56670;SDS011;42545;50.054;8.306;2022-10-31T15:03:24;4.93;;;3.38;;
56670;SDS011;42545;50.054;8.306;2022-10-31T15:05:59;4.03;;;3.17;;
56670;SDS011;42545;50.054;8.306;2022-10-31T15:08:31;3.08;;;2.67;;
56670;SDS011;42545;50.054;8.306;2022-10-31T15:11:11;3.70;;;2.60;;
56670;SDS011;42545;50.054;8.306;2022-10-31T15:13:43;3.13;;;2.38;;
56670;SDS011;42545;50.054;8.306;2022-10-31T15:16:11;2.38;;;2.00;;